createdAt,value
2023-05-15T00:02:18.193Z,98376.47
2023-05-15T00:04:45.055Z,98369.63
2023-05-15T00:07:12.290Z,98373.47
2023-05-15T00:09:41.615Z,98372.00
2023-05-15T00:12:08.907Z,98379.72
2023-05-15T00:14:36.347Z,98379.41
2023-05-15T00:17:03.049Z,98372.84
2023-05-15T00:19:30.191Z,98380.66
2023-05-15T00:21:56.997Z,98373.31
2023-05-15T00:24:23.923Z,98378.59
2023-05-15T00:26:50.853Z,98374.75
2023-05-15T00:29:17.643Z,98373.94
2023-05-15T00:31:44.565Z,98369.78
2023-05-15T00:34:11.340Z,98374.91
2023-05-15T00:36:38.125Z,98369.44
2023-05-15T00:39:06.017Z,98361.91
2023-05-15T00:41:35.487Z,98362.41
2023-05-15T00:44:03.164Z,98364.81
2023-05-15T00:46:34.763Z,98361.78
2023-05-15T00:49:05.258Z,98363.66
2023-05-15T00:51:38.112Z,98356.25
2023-05-15T00:54:05.768Z,98358.97
2023-05-15T00:56:34.396Z,98358.69
2023-05-15T00:59:04.146Z,98367.50
2023-05-15T01:01:34.639Z,98375.16
2023-05-15T01:04:02.993Z,98375.59
2023-05-15T01:06:32.601Z,98375.44
2023-05-15T01:09:02.128Z,98370.97
2023-05-15T01:11:36.099Z,98375.47
2023-05-15T01:14:06.348Z,98377.94
2023-05-15T01:16:35.830Z,98384.28
2023-05-15T01:19:04.207Z,98373.00
2023-05-15T01:21:37.370Z,98383.56
2023-05-15T01:24:50.807Z,98382.13
2023-05-15T01:27:35.542Z,98385.66
2023-05-15T01:30:23.614Z,98388.72
2023-05-15T01:33:27.157Z,98385.25
2023-05-15T01:36:07.953Z,98390.31
2023-05-15T01:38:55.959Z,98389.22
2023-05-15T01:41:29.856Z,98386.38
2023-05-15T01:44:11.639Z,98385.47
2023-05-15T01:46:48.612Z,98394.44
2023-05-15T01:49:20.046Z,98382.75
2023-05-15T01:51:51.579Z,98380.31
2023-05-15T01:54:19.601Z,98380.88
2023-05-15T01:56:46.554Z,98380.88
2023-05-15T01:59:15.753Z,98377.53
2023-05-15T02:01:45.532Z,98380.59
2023-05-15T02:04:14.170Z,98377.47
2023-05-15T02:06:41.516Z,98370.09
2023-05-15T02:09:09.795Z,98376.28
2023-05-15T02:11:37.618Z,98369.25
2023-05-15T02:14:05.522Z,98368.25
2023-05-15T02:16:32.407Z,98367.63
2023-05-15T02:18:59.433Z,98359.50
2023-05-15T02:21:26.308Z,98370.50
2023-05-15T02:23:53.077Z,98370.66
2023-05-15T02:26:35.579Z,98364.56
2023-05-15T02:29:17.554Z,98361.94
2023-05-15T02:32:29.185Z,98359.72
2023-05-15T02:35:13.984Z,98356.41
2023-05-15T02:37:47.966Z,98358.00
2023-05-15T02:40:16.799Z,98354.16
2023-05-15T02:42:49.314Z,98348.38
2023-05-15T02:45:20.636Z,98358.31
2023-05-15T02:47:50.435Z,98357.66
2023-05-15T02:50:18.721Z,98354.28
2023-05-15T02:52:48.160Z,98355.59
2023-05-15T02:55:15.353Z,98363.59
2023-05-15T02:57:42.279Z,98358.81
2023-05-15T03:00:13.315Z,98358.94
2023-05-15T03:02:40.065Z,98354.16
2023-05-15T03:05:07.426Z,98353.66
2023-05-15T03:07:34.702Z,98348.59
2023-05-15T03:10:01.458Z,98358.53
2023-05-15T03:12:28.440Z,98347.22
2023-05-15T03:14:55.221Z,98345.97
2023-05-15T03:17:23.126Z,98345.97
2023-05-15T03:19:50.415Z,98352.16
2023-05-15T03:22:17.217Z,98350.44
2023-05-15T03:24:44.305Z,98356.34
2023-05-15T03:27:11.154Z,98348.19
2023-05-15T03:29:38.776Z,98360.03
2023-05-15T03:32:05.984Z,98354.94
2023-05-15T03:34:37.123Z,98361.00
2023-05-15T03:37:03.910Z,98363.41
2023-05-15T03:39:30.674Z,98359.72
2023-05-15T03:41:57.361Z,98368.78
2023-05-15T03:44:24.598Z,98367.69
2023-05-15T03:46:52.588Z,98368.81
2023-05-15T03:49:19.420Z,98365.16
2023-05-15T03:51:46.224Z,98363.72
2023-05-15T03:54:12.958Z,98373.13
2023-05-15T03:56:39.836Z,98363.66
2023-05-15T03:59:06.700Z,98363.91
2023-05-15T04:01:37.689Z,98362.44
2023-05-15T04:04:11.010Z,98363.88
2023-05-15T04:06:37.985Z,98360.84
2023-05-15T04:09:04.784Z,98366.63
2023-05-15T04:11:31.704Z,98372.88
2023-05-15T04:13:58.418Z,98367.94
2023-05-15T04:16:25.229Z,98363.25
2023-05-15T04:18:52.271Z,98373.94
2023-05-15T04:21:19.369Z,98368.38
2023-05-15T04:23:46.111Z,98366.63
2023-05-15T04:26:13.037Z,98375.09
2023-05-15T04:28:41.511Z,98362.31
2023-05-15T04:31:13.832Z,98365.50
2023-05-15T04:33:40.578Z,98368.91
2023-05-15T04:36:08.705Z,98366.00
2023-05-15T04:38:37.075Z,98356.56
2023-05-15T04:41:03.841Z,98365.22
2023-05-15T04:43:31.490Z,98358.66
2023-05-15T04:45:58.446Z,98367.78
2023-05-15T04:48:25.400Z,98363.94
2023-05-15T04:50:52.335Z,98368.75
2023-05-15T04:53:19.138Z,98367.34
2023-05-15T04:55:46.601Z,98369.78
2023-05-15T04:58:13.700Z,98367.09
2023-05-15T05:00:40.902Z,98375.56
2023-05-15T05:03:07.771Z,98372.69
2023-05-15T05:05:34.610Z,98371.91
2023-05-15T05:08:01.332Z,98375.91
2023-05-15T05:10:28.055Z,98376.72
2023-05-15T05:12:55.483Z,98372.88
2023-05-15T05:15:22.502Z,98380.69
2023-05-15T05:17:49.553Z,98376.72
2023-05-15T05:20:16.330Z,98374.66
2023-05-15T05:22:43.100Z,98371.59
2023-05-15T05:25:10.246Z,98369.34
2023-05-15T05:27:37.038Z,98371.44
2023-05-15T05:30:04.340Z,98381.97
2023-05-15T05:32:31.123Z,98381.66
2023-05-15T05:34:57.888Z,98392.38
2023-05-15T05:37:24.712Z,98382.16
2023-05-15T05:39:51.766Z,98377.25
2023-05-15T05:42:21.289Z,98374.22
2023-05-15T05:44:48.075Z,98378.84
2023-05-15T05:47:14.907Z,98382.38
2023-05-15T05:49:47.102Z,98372.44
2023-05-15T05:52:14.140Z,98369.56
2023-05-15T05:54:41.394Z,98373.06
2023-05-15T05:57:09.653Z,98365.69
2023-05-15T05:59:37.293Z,98365.31
2023-05-15T06:02:05.012Z,98375.22
2023-05-15T06:04:34.102Z,98375.66
2023-05-15T06:07:01.167Z,98369.06
2023-05-15T06:09:28.097Z,98364.25
2023-05-15T06:11:55.330Z,98364.84
2023-05-15T06:14:22.106Z,98368.66
2023-05-15T06:16:49.041Z,98368.63
2023-05-15T06:19:16.209Z,98365.72
2023-05-15T06:21:45.554Z,98371.47
2023-05-15T06:24:14.093Z,98370.94
2023-05-15T06:26:40.882Z,98373.47
2023-05-15T06:29:07.850Z,98372.16
2023-05-15T06:31:34.950Z,98370.38
2023-05-15T06:34:01.833Z,98369.38
2023-05-15T06:36:31.400Z,98382.16
2023-05-15T06:38:58.195Z,98385.00
2023-05-15T06:41:25.093Z,98397.00
2023-05-15T06:43:51.851Z,98387.03
2023-05-15T06:46:19.142Z,98390.34
2023-05-15T06:48:47.175Z,98384.69
2023-05-15T06:51:14.137Z,98383.22
2023-05-15T06:53:42.244Z,98393.16
2023-05-15T06:56:09.281Z,98380.56
2023-05-15T06:58:36.095Z,98382.41
2023-05-15T07:01:03.930Z,98387.00
2023-05-15T07:03:30.966Z,98387.38
2023-05-15T07:05:57.806Z,98391.97
2023-05-15T07:08:24.715Z,98393.81
2023-05-15T07:10:51.556Z,98388.28
2023-05-15T07:13:20.658Z,98395.59
2023-05-15T07:15:47.538Z,98395.47
2023-05-15T07:18:14.458Z,98383.56
2023-05-15T07:20:41.294Z,98382.44
2023-05-15T07:23:07.999Z,98380.41
2023-05-15T07:25:34.877Z,98382.31
2023-05-15T07:28:01.728Z,98373.78
2023-05-15T07:30:28.660Z,98375.50
2023-05-15T07:32:55.925Z,98372.19
2023-05-15T07:35:22.945Z,98372.09
2023-05-15T07:37:49.869Z,98384.84
2023-05-15T07:40:16.617Z,98382.09
2023-05-15T07:42:46.988Z,98380.13
2023-05-15T07:45:13.799Z,98376.28
2023-05-15T07:47:49.035Z,98380.91
2023-05-15T07:50:17.194Z,98385.34
2023-05-15T07:52:44.933Z,98387.41
2023-05-15T07:55:12.605Z,98392.28
2023-05-15T07:57:42.263Z,98395.56
2023-05-15T08:00:12.554Z,98387.50
2023-05-15T08:02:40.914Z,98384.34
2023-05-15T08:05:08.475Z,98391.19
2023-05-15T08:07:35.575Z,98385.72
2023-05-15T08:10:06.321Z,98378.41
2023-05-15T08:12:33.791Z,98376.75
2023-05-15T08:15:00.901Z,98372.72
2023-05-15T08:17:27.989Z,98377.13
2023-05-15T08:19:55.820Z,98379.25
2023-05-15T08:22:22.716Z,98376.25
2023-05-15T08:24:49.554Z,98371.88
2023-05-15T08:27:16.556Z,98375.66
2023-05-15T08:29:43.969Z,98379.22
2023-05-15T08:32:10.916Z,98386.59
2023-05-15T08:34:38.968Z,98380.19
2023-05-15T08:37:06.793Z,98383.22
2023-05-15T08:39:33.735Z,98382.28
2023-05-15T08:42:34.554Z,98380.41
2023-05-15T08:45:02.920Z,98377.72
2023-05-15T08:47:36.848Z,98379.09
2023-05-15T08:50:14.394Z,98385.72
2023-05-15T08:52:45.404Z,98387.19
2023-05-15T08:55:13.701Z,98376.38
2023-05-15T08:57:41.211Z,98381.13
2023-05-15T09:00:11.810Z,98380.78
2023-05-15T09:02:39.780Z,98374.25
2023-05-15T09:05:08.315Z,98368.72
2023-05-15T09:07:35.895Z,98373.78
2023-05-15T09:10:04.311Z,98374.69
2023-05-15T09:12:34.775Z,98371.56
2023-05-15T09:15:31.109Z,98367.88
2023-05-15T09:17:59.145Z,98366.13
2023-05-15T09:20:35.845Z,98367.31
2023-05-15T09:23:06.035Z,98369.78
2023-05-15T09:25:44.763Z,98366.28
2023-05-15T09:28:29.647Z,98365.44
2023-05-15T09:31:03.951Z,98360.59
2023-05-15T09:33:37.606Z,98362.03
2023-05-15T09:36:07.986Z,98358.00
2023-05-15T09:38:42.666Z,98352.53
2023-05-15T09:41:10.157Z,98355.69
2023-05-15T09:43:40.221Z,98349.16
2023-05-15T09:46:08.775Z,98349.06
2023-05-15T09:48:35.899Z,98336.22
2023-05-15T09:51:03.375Z,98333.91
2023-05-15T09:53:31.768Z,98332.88
2023-05-15T09:56:02.893Z,98332.66
2023-05-15T09:58:30.170Z,98331.06
2023-05-15T10:01:00.878Z,98334.16
2023-05-15T10:03:27.755Z,98327.69
2023-05-15T10:06:03.500Z,98334.25
2023-05-15T10:08:30.500Z,98318.75
2023-05-15T10:11:03.147Z,98328.16
2023-05-15T10:13:31.759Z,98310.75
2023-05-15T10:16:02.022Z,98313.19
2023-05-15T10:18:33.613Z,98313.19
2023-05-15T10:21:04.118Z,98310.44
2023-05-15T10:23:34.670Z,98303.81
2023-05-15T10:26:10.990Z,98301.47
2023-05-15T10:28:38.978Z,98297.22
2023-05-15T10:31:07.055Z,98306.34
2023-05-15T10:33:36.627Z,98294.41
2023-05-15T10:36:05.190Z,98295.13
2023-05-15T10:38:34.179Z,98290.78
2023-05-15T10:41:16.129Z,98281.34
2023-05-15T10:43:44.376Z,98282.25
2023-05-15T10:46:11.643Z,98280.66
2023-05-15T10:48:40.230Z,98277.03
2023-05-15T10:51:24.281Z,98275.66
2023-05-15T10:53:52.013Z,98268.34
2023-05-15T10:56:18.937Z,98269.81
2023-05-15T10:58:54.937Z,98263.94
2023-05-15T11:01:35.053Z,98266.09
2023-05-15T11:04:17.545Z,98266.44
2023-05-15T11:06:47.722Z,98258.88
2023-05-15T11:09:34.648Z,98262.88
2023-05-15T11:12:04.772Z,98262.78
2023-05-15T11:14:51.905Z,98262.63
2023-05-15T11:17:18.787Z,98257.66
2023-05-15T11:19:58.210Z,98256.56
2023-05-15T11:22:38.752Z,98251.03
2023-05-15T11:25:14.148Z,98245.16
2023-05-15T11:27:46.247Z,98246.66
2023-05-15T11:30:25.811Z,98250.59
2023-05-15T11:33:08.494Z,98253.72
2023-05-15T11:35:45.910Z,98244.88
2023-05-15T11:38:20.156Z,98243.91
2023-05-15T11:40:49.719Z,98246.25
2023-05-15T11:43:32.367Z,98239.16
2023-05-15T11:46:09.544Z,98238.28
2023-05-15T11:48:41.622Z,98240.47
2023-05-15T11:51:25.280Z,98228.66
2023-05-15T11:53:57.393Z,98234.53
2023-05-15T11:56:29.836Z,98233.94
2023-05-15T11:58:59.491Z,98230.75
2023-05-15T12:01:26.875Z,98230.63
2023-05-15T12:03:54.934Z,98238.97
2023-05-15T12:06:22.891Z,98259.19
2023-05-15T12:08:53.634Z,98256.38
2023-05-15T12:11:24.113Z,98269.56
2023-05-15T12:13:54.983Z,98259.38
2023-05-15T12:16:29.086Z,98257.59
2023-05-15T12:18:59.791Z,98260.09
2023-05-15T12:21:27.492Z,98263.59
2023-05-15T12:26:29.717Z,98270.56
2023-05-15T12:28:56.916Z,98253.75
2023-05-15T12:31:24.188Z,98258.00
2023-05-15T12:33:51.218Z,98265.06
2023-05-15T12:36:21.359Z,98260.41
2023-05-15T12:38:48.979Z,98261.88
2023-05-15T12:41:16.079Z,98257.56
2023-05-15T12:43:42.981Z,98256.94
2023-05-15T12:46:13.160Z,98258.53
2023-05-15T12:48:41.021Z,98265.91
2023-05-15T12:51:08.569Z,98258.25
2023-05-15T12:53:36.505Z,98255.34
2023-05-15T12:56:04.547Z,98259.94
2023-05-15T12:58:31.439Z,98261.47
2023-05-15T13:00:58.928Z,98250.00
2023-05-15T13:03:27.898Z,98258.91
2023-05-15T13:05:55.458Z,98242.97
2023-05-15T13:08:22.739Z,98242.91
2023-05-15T13:10:58.598Z,98243.09
2023-05-15T13:13:47.415Z,98245.31
2023-05-15T13:16:29.779Z,98248.41
2023-05-15T13:18:58.747Z,98256.44
2023-05-15T13:21:26.093Z,98250.66
2023-05-15T13:23:53.043Z,98240.88
2023-05-15T13:26:20.104Z,98256.63
2023-05-15T13:28:47.000Z,98251.56
2023-05-15T13:31:13.913Z,98247.50
2023-05-15T13:33:41.632Z,98249.50
2023-05-15T13:36:08.979Z,98240.94
2023-05-15T13:38:35.844Z,98237.84
2023-05-15T13:41:04.115Z,98233.22
2023-05-15T13:43:31.462Z,98238.94
2023-05-15T13:45:58.244Z,98232.69
2023-05-15T13:48:25.145Z,98226.66
2023-05-15T13:50:52.040Z,98219.59
2023-05-15T13:53:18.957Z,98213.84
2023-05-15T13:55:47.078Z,98204.84
2023-05-15T13:58:14.302Z,98206.50
2023-05-15T14:00:45.147Z,98199.69
2023-05-15T14:03:14.958Z,98203.59
2023-05-15T14:05:43.027Z,98198.72
2023-05-15T14:08:09.862Z,98198.22
2023-05-15T14:10:39.948Z,98203.72
2023-05-15T14:13:06.737Z,98206.50
2023-05-15T14:15:33.555Z,98203.06
2023-05-15T14:18:00.386Z,98209.25
2023-05-15T14:20:27.659Z,98221.34
2023-05-15T14:22:54.625Z,98224.38
2023-05-15T14:25:21.455Z,98217.53
2023-05-15T14:27:48.280Z,98228.41
2023-05-15T14:30:15.568Z,98225.78
2023-05-15T14:32:42.414Z,98228.69
2023-05-15T14:35:09.242Z,98223.94
2023-05-15T14:37:37.138Z,98228.75
2023-05-15T14:40:05.224Z,98226.88
2023-05-15T14:42:32.699Z,98227.34
2023-05-15T14:44:59.821Z,98226.50
2023-05-15T14:47:28.285Z,98227.16
2023-05-15T14:49:55.693Z,98228.56
2023-05-15T14:52:22.762Z,98227.75
2023-05-15T14:55:00.499Z,98228.53
2023-05-15T14:57:34.662Z,98224.53
2023-05-15T15:00:01.659Z,98217.31
2023-05-15T15:02:28.491Z,98220.75
2023-05-15T15:04:55.384Z,98215.56
2023-05-15T15:07:22.399Z,98241.41
2023-05-15T15:09:49.197Z,98238.28
2023-05-15T15:12:17.344Z,98247.66
2023-05-15T15:14:44.157Z,98255.56
2023-05-15T15:17:10.912Z,98252.66
2023-05-15T15:19:37.667Z,98255.91
2023-05-15T15:22:04.748Z,98254.25
2023-05-15T15:24:31.624Z,98253.38
2023-05-15T15:26:58.513Z,98260.38
2023-05-15T15:29:25.379Z,98270.66
2023-05-15T15:31:52.194Z,98258.94
2023-05-15T15:34:19.089Z,98265.63
2023-05-15T15:36:46.118Z,98267.06
2023-05-15T15:39:13.269Z,98263.88
2023-05-15T15:41:40.098Z,98274.44
2023-05-15T15:44:07.027Z,98270.44
2023-05-15T15:46:33.920Z,98275.91
2023-05-15T15:49:00.975Z,98276.94
2023-05-15T15:51:27.975Z,98280.50
2023-05-15T15:53:54.821Z,98281.59
2023-05-15T15:56:22.222Z,98286.22
2023-05-15T15:58:49.103Z,98283.00
2023-05-15T16:01:16.618Z,98286.47
2023-05-15T16:03:43.459Z,98292.66
2023-05-15T16:06:10.584Z,98283.59
2023-05-15T16:08:37.441Z,98286.22
2023-05-15T16:11:04.269Z,98282.22
2023-05-15T16:13:31.135Z,98283.78
2023-05-15T16:15:58.044Z,98281.13
2023-05-15T16:18:24.869Z,98283.72
2023-05-15T16:20:51.628Z,98287.63
2023-05-15T16:23:19.718Z,98286.34
2023-05-15T16:25:46.669Z,98289.41
2023-05-15T16:28:13.910Z,98284.34
2023-05-15T16:30:48.688Z,98287.13
2023-05-15T16:33:18.587Z,98289.84
2023-05-15T16:35:46.260Z,98290.94
2023-05-15T16:38:13.873Z,98305.94
2023-05-15T16:40:41.312Z,98304.38
2023-05-15T16:43:08.290Z,98301.31
2023-05-15T16:45:35.107Z,98302.91
2023-05-15T16:48:02.351Z,98314.66
2023-05-15T16:50:31.248Z,98316.09
2023-05-15T16:52:58.880Z,98319.16
2023-05-15T16:55:25.741Z,98325.28
2023-05-15T16:57:52.597Z,98312.25
2023-05-15T17:00:20.898Z,98312.59
2023-05-15T17:02:48.231Z,98326.72
2023-05-15T17:05:15.653Z,98322.63
2023-05-15T17:07:44.401Z,98321.72
2023-05-15T17:10:12.524Z,98327.75
2023-05-15T17:12:39.759Z,98321.25
2023-05-15T17:15:07.696Z,98326.81
2023-05-15T17:17:34.644Z,98327.75
2023-05-15T17:20:03.070Z,98327.56
2023-05-15T17:22:30.392Z,98326.84
2023-05-15T17:24:57.510Z,98320.56
2023-05-15T17:27:24.442Z,98320.66
2023-05-15T17:29:51.481Z,98322.97
2023-05-15T17:32:18.840Z,98329.75
2023-05-15T17:34:46.294Z,98324.81
2023-05-15T17:37:14.197Z,98333.66
2023-05-15T17:39:41.197Z,98332.56
2023-05-15T17:42:08.052Z,98329.50
2023-05-15T17:44:34.967Z,98334.25
2023-05-15T17:47:01.857Z,98335.56
2023-05-15T17:49:28.743Z,98332.66
2023-05-15T17:51:55.868Z,98343.28
2023-05-15T17:54:22.739Z,98338.25
2023-05-15T17:56:49.618Z,98341.28
2023-05-15T17:59:16.463Z,98336.66
2023-05-15T18:01:43.393Z,98340.66
2023-05-15T18:04:10.546Z,98352.41
2023-05-15T18:06:37.972Z,98362.38
2023-05-15T18:09:05.044Z,98360.97
2023-05-15T18:11:32.120Z,98371.28
2023-05-15T18:13:59.090Z,98380.16
2023-05-15T18:16:26.418Z,98384.31
2023-05-15T18:18:55.618Z,98386.69
2023-05-15T18:21:25.336Z,98396.28
2023-05-15T18:23:52.250Z,98390.78
2023-05-15T18:26:19.311Z,98401.34
2023-05-15T18:28:48.696Z,98413.56
2023-05-15T18:31:18.801Z,98407.22
2023-05-15T18:33:51.464Z,98412.66
2023-05-15T18:36:18.596Z,98409.38
2023-05-15T18:38:45.569Z,98409.63
2023-05-15T18:41:12.360Z,98413.41
2023-05-15T18:43:40.294Z,98409.88
2023-05-15T18:46:06.999Z,98408.53
2023-05-15T18:48:33.978Z,98409.19
2023-05-15T18:51:01.036Z,98410.44
2023-05-15T18:53:28.646Z,98405.91
2023-05-15T18:55:55.484Z,98398.06
2023-05-15T18:58:22.254Z,98400.56
2023-05-15T19:00:49.079Z,98404.44
2023-05-15T19:03:21.018Z,98399.16
2023-05-15T19:05:50.510Z,98387.66
2023-05-15T19:08:17.525Z,98398.00
2023-05-15T19:10:48.949Z,98395.84
2023-05-15T19:13:16.363Z,98391.13
2023-05-15T19:15:53.909Z,98401.69
2023-05-15T19:18:21.612Z,98400.66
2023-05-15T19:20:56.022Z,98402.06
2023-05-15T19:23:23.794Z,98404.47
2023-05-15T19:25:51.143Z,98407.75
2023-05-15T19:28:17.988Z,98412.44
2023-05-15T19:30:44.895Z,98414.78
2023-05-15T19:33:12.828Z,98421.28
2023-05-15T19:35:40.350Z,98417.13
2023-05-15T19:38:07.645Z,98416.28
2023-05-15T19:40:38.571Z,98408.09
2023-05-15T19:43:08.041Z,98409.00
2023-05-15T19:45:34.921Z,98410.34
2023-05-15T19:48:02.231Z,98407.81
2023-05-15T19:50:31.977Z,98413.34
2023-05-15T19:53:00.032Z,98412.25
2023-05-15T19:55:27.026Z,98415.47
2023-05-15T19:57:56.530Z,98416.06
2023-05-15T20:00:23.669Z,98414.69
2023-05-15T20:02:50.925Z,98420.88
2023-05-15T20:05:17.999Z,98418.69
2023-05-15T20:07:47.905Z,98425.38
2023-05-15T20:10:18.496Z,98430.84
2023-05-15T20:12:46.603Z,98421.88
2023-05-15T20:15:14.802Z,98421.53
2023-05-15T20:17:44.962Z,98425.53
2023-05-15T20:20:12.458Z,98416.22
2023-05-15T20:22:44.432Z,98423.59
2023-05-15T20:25:11.378Z,98429.34
2023-05-15T20:27:38.742Z,98430.66
2023-05-15T20:30:06.929Z,98428.59
2023-05-15T20:32:34.843Z,98430.06
2023-05-15T20:35:02.468Z,98426.13
2023-05-15T20:37:30.625Z,98427.91
2023-05-15T20:39:57.980Z,98430.44
2023-05-15T20:42:27.784Z,98432.19
2023-05-15T20:44:54.863Z,98435.50
2023-05-15T20:47:24.483Z,98433.59
2023-05-15T20:49:51.319Z,98440.50
2023-05-15T20:52:18.179Z,98439.28
2023-05-15T20:54:45.108Z,98443.34
2023-05-15T20:57:11.998Z,98437.22
2023-05-15T20:59:38.842Z,98445.88
2023-05-15T21:02:05.706Z,98440.31
2023-05-15T21:04:35.006Z,98439.06
2023-05-15T21:07:05.454Z,98443.25
2023-05-15T21:09:33.251Z,98443.06
2023-05-15T21:12:00.112Z,98439.63
2023-05-15T21:14:27.131Z,98437.75
2023-05-15T21:16:54.351Z,98442.09
2023-05-15T21:19:21.858Z,98443.06
2023-05-15T21:21:48.668Z,98442.13
2023-05-15T21:24:16.630Z,98449.56
2023-05-15T21:26:43.363Z,98449.03
2023-05-15T21:29:10.187Z,98443.19
2023-05-15T21:31:37.083Z,98446.91
2023-05-15T21:34:03.889Z,98451.94
2023-05-15T21:36:31.340Z,98459.53
2023-05-15T21:38:58.276Z,98456.97
2023-05-15T21:41:26.389Z,98451.66
2023-05-15T21:43:53.692Z,98452.75
2023-05-15T21:46:20.532Z,98453.03
2023-05-15T21:48:51.099Z,98452.22
2023-05-15T21:51:18.224Z,98462.47
2023-05-15T21:53:45.347Z,98467.44
2023-05-15T21:56:12.194Z,98467.16
2023-05-15T21:58:39.091Z,98464.34
2023-05-15T22:01:06.160Z,98464.50
2023-05-15T22:03:33.150Z,98460.97
2023-05-15T22:06:00.185Z,98459.06
2023-05-15T22:08:27.132Z,98463.28
2023-05-15T22:10:54.502Z,98458.94
2023-05-15T22:13:21.459Z,98454.63
2023-05-15T22:15:48.229Z,98453.50
2023-05-15T22:18:17.633Z,98458.28
2023-05-15T22:20:47.570Z,98459.91
2023-05-15T22:23:15.083Z,98458.00
2023-05-15T22:25:42.086Z,98458.13
2023-05-15T22:28:08.833Z,98459.59
2023-05-15T22:30:35.802Z,98458.47
2023-05-15T22:33:02.608Z,98462.00
2023-05-15T22:35:30.016Z,98460.53
2023-05-15T22:37:57.042Z,98464.69
2023-05-15T22:40:25.255Z,98460.69
2023-05-15T22:42:52.302Z,98460.25
2023-05-15T22:45:21.925Z,98460.59
2023-05-15T22:47:51.165Z,98458.53
2023-05-15T22:50:18.323Z,98462.19
2023-05-15T22:52:45.232Z,98462.97
2023-05-15T22:55:13.174Z,98456.94
2023-05-15T22:57:40.514Z,98459.47
2023-05-15T23:00:10.008Z,98461.06
2023-05-15T23:02:42.636Z,98458.66
2023-05-15T23:05:11.316Z,98458.13
2023-05-15T23:07:38.209Z,98463.41
2023-05-15T23:10:06.063Z,98463.88
2023-05-15T23:12:33.182Z,98465.47
2023-05-15T23:14:59.957Z,98466.41
2023-05-15T23:17:26.806Z,98463.22
2023-05-15T23:19:53.594Z,98458.75
2023-05-15T23:22:20.332Z,98455.88
2023-05-15T23:24:47.337Z,98462.63
2023-05-15T23:27:16.892Z,98466.00
2023-05-15T23:29:43.634Z,98462.94
2023-05-15T23:32:10.545Z,98468.25
2023-05-15T23:34:37.726Z,98473.69
2023-05-15T23:37:04.743Z,98461.69
2023-05-15T23:39:31.758Z,98470.81
2023-05-15T23:41:59.894Z,98469.03
2023-05-15T23:44:26.696Z,98476.09
2023-05-15T23:46:53.527Z,98469.19
2023-05-15T23:49:20.394Z,98464.22
2023-05-15T23:51:47.127Z,98471.41
2023-05-15T23:54:13.881Z,98464.22
2023-05-15T23:56:41.282Z,98469.31
2023-05-15T23:59:08.320Z,98471.09
